Time;durP1;ratioP1;P1;durP2;ratioP2;P2;SDS_P1;SDS_P2;PMS_P1;PMS_P2;Temp;Humidity;BMP_temperature;BMP_pressure;BME280_temperature;BME280_humidity;BME280_pressure;Samples;Min_cycle;Max_cycle;Signal;HPM_P1;HPM_P2
2022/10/22 00:00:29;;;;;;;15.57;12.15;;;;;;;;;;5024986;28;20587;-52
2022/10/22 00:02:55;;;;;;;18.33;13.00;;;;;;;;;;5028159;28;20256;-51
2022/10/22 00:05:21;;;;;;;17.35;13.13;;;;;;;;;;5026723;28;20228;-51
2022/10/22 00:07:49;;;;;;;17.52;13.40;;;;;;;;;;5027373;28;20267;-52
2022/10/22 00:10:16;;;;;;;19.13;13.68;;;;;;;;;;5023718;28;20737;-52
2022/10/22 00:12:42;;;;;;;13.52;12.13;;;;;;;;;;5021893;28;20934;-52
2022/10/22 00:15:10;;;;;;;15.45;12.02;;;;;;;;;;5024645;28;20251;-51
2022/10/22 00:17:37;;;;;;;14.30;12.77;;;;;;;;;;5023705;28;20253;-53
2022/10/22 00:20:03;;;;;;;14.45;12.10;;;;;;;;;;5021161;28;20233;-52
2022/10/22 00:22:30;;;;;;;14.35;12.48;;;;;;;;;;5024413;28;20593;-53
2022/10/22 00:24:57;;;;;;;15.40;13.07;;;;;;;;;;5019552;28;20236;-53
2022/10/22 00:27:24;;;;;;;13.73;12.27;;;;;;;;;;5026014;28;20763;-53
2022/10/22 00:29:50;;;;;;;15.82;12.48;;;;;;;;;;5025982;28;20234;-52
2022/10/22 00:32:16;;;;;;;13.77;12.35;;;;;;;;;;5024566;28;20661;-52
2022/10/22 00:34:43;;;;;;;13.80;12.07;;;;;;;;;;5020837;28;20261;-52
2022/10/22 00:37:09;;;;;;;14.50;12.65;;;;;;;;;;5017018;28;20240;-53
2022/10/22 00:39:36;;;;;;;14.25;11.60;;;;;;;;;;5022881;28;20531;-51
2022/10/22 00:42:04;;;;;;;12.90;11.55;;;;;;;;;;5012636;28;20237;-52
2022/10/22 00:44:49;;;;;;;10.98;9.95;;;;;;;;;;5019967;28;20617;-53
2022/10/22 00:47:16;;;;;;;11.43;10.30;;;;;;;;;;5024177;28;20243;-52
2022/10/22 00:49:42;;;;;;;16.58;11.48;;;;;;;;;;5022751;28;20613;-53
2022/10/22 00:52:09;;;;;;;14.70;13.18;;;;;;;;;;5025375;28;20263;-52
2022/10/22 00:54:36;;;;;;;12.68;10.93;;;;;;;;;;5024499;28;20231;-53
2022/10/22 00:57:04;;;;;;;14.27;12.88;;;;;;;;;;5024178;28;20236;-52
2022/10/22 00:59:31;;;;;;;12.75;11.38;;;;;;;;;;5024457;28;20310;-52
2022/10/22 01:01:58;;;;;;;14.60;12.85;;;;;;;;;;5019931;28;20225;-52
2022/10/22 01:04:24;;;;;;;15.48;13.50;;;;;;;;;;5021191;28;20344;-52
2022/10/22 01:06:51;;;;;;;12.85;11.52;;;;;;;;;;5026101;28;20670;-51
2022/10/22 01:09:26;;;;;;;14.13;12.45;;;;;;;;;;5025916;28;20873;-53
2022/10/22 01:11:57;;;;;;;13.85;12.05;;;;;;;;;;5028069;28;20239;-53
2022/10/22 01:14:31;;;;;;;15.95;12.80;;;;;;;;;;5028339;28;20605;-52
2022/10/22 01:17:01;;;;;;;15.25;13.65;;;;;;;;;;5020017;28;20649;-52
2022/10/22 01:19:48;;;;;;;14.55;12.57;;;;;;;;;;5023763;28;20243;-50
2022/10/22 01:22:19;;;;;;;17.55;14.98;;;;;;;;;;5017532;28;20289;-52
2022/10/22 01:25:01;;;;;;;16.83;13.00;;;;;;;;;;5022095;28;20286;-53
2022/10/22 01:27:32;;;;;;;18.90;14.52;;;;;;;;;;5029252;28;20282;-52
2022/10/22 01:30:01;;;;;;;13.95;12.38;;;;;;;;;;5024277;28;20240;-51
2022/10/22 01:32:29;;;;;;;18.45;14.05;;;;;;;;;;5025565;28;20845;-52
2022/10/22 01:35:00;;;;;;;18.05;13.00;;;;;;;;;;5020909;28;20282;-51
2022/10/22 01:37:28;;;;;;;15.27;12.55;;;;;;;;;;5020866;28;21328;-51
2022/10/22 01:39:55;;;;;;;17.13;12.52;;;;;;;;;;5024992;28;20232;-53
2022/10/22 01:42:23;;;;;;;12.63;10.82;;;;;;;;;;5022816;28;20236;-56
2022/10/22 01:44:49;;;;;;;13.27;11.88;;;;;;;;;;5022835;28;20244;-53
2022/10/22 01:47:21;;;;;;;13.32;11.95;;;;;;;;;;5024420;28;20356;-51
2022/10/22 01:50:05;;;;;;;14.48;12.95;;;;;;;;;;5022276;28;20792;-51
2022/10/22 01:52:40;;;;;;;14.40;12.82;;;;;;;;;;5005246;28;20243;-52
2022/10/22 01:55:09;;;;;;;16.98;13.48;;;;;;;;;;5018535;28;20235;-51
2022/10/22 01:57:42;;;;;;;12.52;11.23;;;;;;;;;;5024186;28;20328;-52
2022/10/22 02:00:10;;;;;;;14.05;12.55;;;;;;;;;;5021196;28;20248;-53
2022/10/22 02:02:41;;;;;;;13.65;12.27;;;;;;;;;;5023940;28;20323;-52
2022/10/22 02:05:11;;;;;;;15.55;12.70;;;;;;;;;;5020876;28;20265;-51
2022/10/22 02:07:39;;;;;;;15.43;13.80;;;;;;;;;;5022866;28;20241;-52
2022/10/22 02:10:06;;;;;;;14.82;11.77;;;;;;;;;;5018923;28;20236;-53
2022/10/22 02:12:33;;;;;;;12.18;10.52;;;;;;;;;;5021443;28;20264;-52
2022/10/22 02:15:00;;;;;;;19.67;13.02;;;;;;;;;;5023079;28;20240;-52
2022/10/22 02:17:28;;;;;;;13.73;12.20;;;;;;;;;;5022002;28;21630;-54
2022/10/22 02:19:58;;;;;;;15.48;13.77;;;;;;;;;;5024744;28;20232;-52
2022/10/22 02:22:26;;;;;;;13.68;12.20;;;;;;;;;;5022428;28;20239;-52
2022/10/22 02:24:52;;;;;;;16.40;11.95;;;;;;;;;;5022190;28;20247;-54
2022/10/22 02:27:21;;;;;;;15.10;12.75;;;;;;;;;;5022910;28;20251;-52
2022/10/22 02:29:52;;;;;;;13.65;11.63;;;;;;;;;;5023920;28;20236;-54
2022/10/22 02:32:21;;;;;;;14.65;13.15;;;;;;;;;;5024884;28;20232;-52
2022/10/22 02:34:48;;;;;;;15.75;12.40;;;;;;;;;;5024065;28;20228;-51
2022/10/22 02:37:16;;;;;;;14.40;12.52;;;;;;;;;;5023766;28;20236;-52
2022/10/22 02:39:43;;;;;;;13.10;11.80;;;;;;;;;;5025544;28;20282;-51
2022/10/22 02:42:11;;;;;;;11.73;9.93;;;;;;;;;;5025973;28;20224;-53
2022/10/22 02:44:38;;;;;;;15.55;12.20;;;;;;;;;;5027975;28;20315;-54
2022/10/22 02:47:04;;;;;;;13.65;11.50;;;;;;;;;;5026664;28;20240;-52
2022/10/22 02:49:31;;;;;;;15.38;10.95;;;;;;;;;;5037951;28;20259;-57
2022/10/22 02:51:58;;;;;;;12.50;11.23;;;;;;;;;;5032315;28;20232;-52
2022/10/22 02:54:26;;;;;;;14.05;11.95;;;;;;;;;;5027027;28;20236;-52
2022/10/22 02:56:52;;;;;;;13.25;11.45;;;;;;;;;;5018890;28;20627;-52
2022/10/22 02:59:19;;;;;;;13.20;11.55;;;;;;;;;;5025470;28;20248;-51
2022/10/22 03:01:46;;;;;;;15.82;10.80;;;;;;;;;;5026371;28;20247;-53
2022/10/22 03:04:12;;;;;;;13.98;12.52;;;;;;;;;;5024711;28;20229;-53
2022/10/22 03:06:42;;;;;;;12.63;11.25;;;;;;;;;;5025104;28;20232;-51
2022/10/22 03:09:09;;;;;;;12.15;10.50;;;;;;;;;;5023936;28;20343;-52
2022/10/22 03:11:37;;;;;;;13.77;10.57;;;;;;;;;;5023884;28;20242;-52
2022/10/22 03:14:03;;;;;;;11.80;10.40;;;;;;;;;;5022924;28;20244;-53
2022/10/22 03:16:29;;;;;;;12.13;10.88;;;;;;;;;;5026140;28;20228;-52
2022/10/22 03:18:56;;;;;;;12.30;9.95;;;;;;;;;;5025598;28;20229;-52
2022/10/22 03:21:26;;;;;;;11.85;10.02;;;;;;;;;;5023983;28;20252;-52
2022/10/22 03:23:53;;;;;;;11.95;10.32;;;;;;;;;;5017767;28;20236;-52
2022/10/22 03:26:19;;;;;;;11.02;9.45;;;;;;;;;;5022601;28;20256;-53
2022/10/22 03:28:47;;;;;;;9.63;8.63;;;;;;;;;;5025263;28;20248;-52
2022/10/22 03:31:14;;;;;;;10.45;9.35;;;;;;;;;;5023645;28;20298;-54
2022/10/22 03:33:40;;;;;;;12.57;10.65;;;;;;;;;;5026276;28;20229;-52
2022/10/22 03:36:08;;;;;;;12.77;10.32;;;;;;;;;;5023375;28;20236;-51
2022/10/22 03:38:35;;;;;;;12.55;10.93;;;;;;;;;;5024795;28;20244;-52
2022/10/22 03:41:01;;;;;;;14.63;10.48;;;;;;;;;;5023903;28;20239;-52
2022/10/22 03:43:28;;;;;;;11.75;10.55;;;;;;;;;;5025493;28;20233;-53
2022/10/22 03:45:56;;;;;;;12.20;10.05;;;;;;;;;;5023205;28;20805;-52
2022/10/22 03:48:23;;;;;;;13.32;11.60;;;;;;;;;;5024151;28;20228;-52
2022/10/22 03:50:49;;;;;;;13.73;11.63;;;;;;;;;;5021843;28;20229;-54
2022/10/22 03:53:16;;;;;;;14.60;11.48;;;;;;;;;;5022602;28;20229;-51
2022/10/22 03:55:42;;;;;;;11.32;9.65;;;;;;;;;;5019305;28;20258;-53
2022/10/22 03:58:08;;;;;;;13.10;10.27;;;;;;;;;;5022258;28;20590;-52
2022/10/22 04:00:35;;;;;;;12.23;11.00;;;;;;;;;;5022494;28;20228;-52
2022/10/22 04:03:03;;;;;;;12.48;11.20;;;;;;;;;;5026289;28;20843;-53
2022/10/22 04:05:31;;;;;;;12.45;11.10;;;;;;;;;;5025152;28;20255;-52
2022/10/22 04:07:58;;;;;;;14.52;10.63;;;;;;;;;;5024008;28;20252;-51
2022/10/22 04:10:24;;;;;;;11.55;10.35;;;;;;;;;;5025040;28;20324;-53
2022/10/22 04:12:51;;;;;;;11.77;9.60;;;;;;;;;;5024014;28;20907;-52
2022/10/22 04:15:18;;;;;;;10.05;8.95;;;;;;;;;;5024582;28;20256;-52
2022/10/22 04:17:44;;;;;;;10.20;9.18;;;;;;;;;;5023391;28;20232;-53
2022/10/22 04:20:12;;;;;;;11.98;10.30;;;;;;;;;;5024495;28;20246;-51
2022/10/22 04:22:39;;;;;;;11.07;9.60;;;;;;;;;;5024003;28;20239;-51
2022/10/22 04:25:06;;;;;;;13.15;10.48;;;;;;;;;;5022727;28;20279;-53
2022/10/22 04:27:33;;;;;;;12.40;10.75;;;;;;;;;;5024139;28;20240;-51
2022/10/22 04:30:00;;;;;;;12.77;11.40;;;;;;;;;;5024508;28;20233;-51
2022/10/22 04:32:27;;;;;;;14.00;11.68;;;;;;;;;;5025968;28;20228;-52
2022/10/22 04:34:53;;;;;;;11.52;10.32;;;;;;;;;;5024483;28;20244;-51
2022/10/22 04:37:21;;;;;;;11.38;9.98;;;;;;;;;;5024256;28;20307;-52
2022/10/22 04:39:47;;;;;;;10.65;9.23;;;;;;;;;;5022879;28;20220;-52
2022/10/22 04:42:14;;;;;;;13.35;10.95;;;;;;;;;;5024626;28;20236;-52
2022/10/22 04:44:40;;;;;;;11.05;9.55;;;;;;;;;;5024079;28;20232;-52
2022/10/22 04:47:07;;;;;;;12.38;10.25;;;;;;;;;;5021816;28;20245;-52
2022/10/22 04:49:33;;;;;;;13.20;10.63;;;;;;;;;;5024991;28;20244;-52
2022/10/22 04:52:00;;;;;;;13.25;10.48;;;;;;;;;;5025026;28;20241;-52
2022/10/22 04:54:28;;;;;;;10.68;9.52;;;;;;;;;;5021589;28;20705;-52
2022/10/22 04:56:54;;;;;;;12.55;10.25;;;;;;;;;;5022288;28;20248;-53
2022/10/22 04:59:21;;;;;;;12.45;10.65;;;;;;;;;;5025208;28;20700;-51
2022/10/22 05:01:47;;;;;;;11.43;10.23;;;;;;;;;;5023037;28;20239;-53
2022/10/22 05:04:16;;;;;;;11.52;10.30;;;;;;;;;;5018388;28;20722;-52
2022/10/22 05:06:42;;;;;;;11.57;10.40;;;;;;;;;;5023515;28;20228;-53
2022/10/22 05:09:11;;;;;;;13.82;10.30;;;;;;;;;;5023430;28;20244;-54
2022/10/22 05:11:40;;;;;;;12.23;10.80;;;;;;;;;;5024523;28;20243;-52
2022/10/22 05:14:08;;;;;;;12.18;10.98;;;;;;;;;;5024002;28;20234;-52
2022/10/22 05:16:36;;;;;;;13.18;10.77;;;;;;;;;;5023117;28;20632;-52
2022/10/22 05:19:03;;;;;;;11.23;8.95;;;;;;;;;;5022703;28;20232;-52
2022/10/22 05:21:30;;;;;;;10.43;9.38;;;;;;;;;;5023755;28;20340;-52
2022/10/22 05:23:58;;;;;;;11.50;10.30;;;;;;;;;;5022986;28;20232;-52
2022/10/22 05:26:25;;;;;;;13.18;11.02;;;;;;;;;;5030952;28;20671;-53
2022/10/22 05:28:53;;;;;;;12.35;10.48;;;;;;;;;;5031214;28;20802;-52
2022/10/22 05:31:20;;;;;;;11.23;10.10;;;;;;;;;;5024094;28;20344;-52
2022/10/22 05:33:47;;;;;;;11.75;10.55;;;;;;;;;;5022550;28;20233;-51
2022/10/22 05:36:15;;;;;;;12.40;10.35;;;;;;;;;;5023233;28;20241;-51
2022/10/22 05:38:41;;;;;;;11.48;10.27;;;;;;;;;;5021259;28;20233;-51
2022/10/22 05:41:09;;;;;;;11.30;9.95;;;;;;;;;;5022382;28;20236;-52
2022/10/22 05:43:36;;;;;;;10.02;8.98;;;;;;;;;;5023681;28;20237;-51
2022/10/22 05:46:04;;;;;;;9.77;8.77;;;;;;;;;;5022439;28;20232;-53
2022/10/22 05:48:31;;;;;;;10.77;8.48;;;;;;;;;;5023214;28;20315;-52
2022/10/22 05:51:03;;;;;;;12.07;10.75;;;;;;;;;;5023420;28;20326;-52
2022/10/22 05:53:29;;;;;;;11.27;9.40;;;;;;;;;;5017076;28;20309;-52
2022/10/22 05:55:56;;;;;;;11.65;9.82;;;;;;;;;;5022286;28;20240;-53
2022/10/22 05:58:22;;;;;;;10.55;9.38;;;;;;;;;;5022496;28;20251;-54
2022/10/22 06:00:49;;;;;;;12.05;10.23;;;;;;;;;;5022391;28;20236;-53
2022/10/22 06:03:16;;;;;;;11.43;9.90;;;;;;;;;;5021107;28;20229;-52
2022/10/22 06:05:43;;;;;;;12.18;9.68;;;;;;;;;;5023172;28;20233;-52
2022/10/22 06:08:11;;;;;;;11.13;9.73;;;;;;;;;;5027032;28;20330;-53
2022/10/22 06:10:40;;;;;;;12.82;11.35;;;;;;;;;;5022141;28;20232;-52
2022/10/22 06:13:07;;;;;;;11.60;10.38;;;;;;;;;;5022900;28;20738;-52
2022/10/22 06:15:33;;;;;;;12.05;10.45;;;;;;;;;;5024432;28;20255;-51
2022/10/22 06:18:00;;;;;;;13.25;11.90;;;;;;;;;;5018278;28;20297;-52
2022/10/22 06:20:28;;;;;;;11.50;10.07;;;;;;;;;;5023529;28;20236;-53
2022/10/22 06:22:55;;;;;;;12.07;10.75;;;;;;;;;;5015713;28;20236;-52
2022/10/22 06:25:21;;;;;;;11.35;10.30;;;;;;;;;;5023667;28;20616;-51
2022/10/22 06:27:49;;;;;;;12.60;9.95;;;;;;;;;;5028033;28;20232;-52
2022/10/22 06:30:16;;;;;;;10.77;9.65;;;;;;;;;;5025981;28;20823;-52
2022/10/22 06:32:42;;;;;;;10.93;9.70;;;;;;;;;;5025749;28;20240;-52
2022/10/22 06:35:09;;;;;;;12.00;9.95;;;;;;;;;;5020650;28;20638;-51
2022/10/22 06:37:37;;;;;;;17.15;14.05;;;;;;;;;;5021757;28;20337;-52
2022/10/22 06:40:03;;;;;;;13.13;10.52;;;;;;;;;;5016195;28;20236;-52
2022/10/22 06:42:30;;;;;;;11.35;10.02;;;;;;;;;;5023122;28;20224;-54
2022/10/22 06:44:57;;;;;;;15.27;11.77;;;;;;;;;;5023624;28;20707;-52
2022/10/22 06:47:23;;;;;;;12.73;10.25;;;;;;;;;;5021863;28;20314;-52
2022/10/22 06:49:50;;;;;;;15.68;11.48;;;;;;;;;;5020655;28;20719;-52
2022/10/22 06:52:17;;;;;;;12.18;10.45;;;;;;;;;;5024566;28;20224;-53
2022/10/22 06:54:44;;;;;;;13.93;11.00;;;;;;;;;;5021904;28;20241;-53
2022/10/22 06:57:11;;;;;;;13.73;11.48;;;;;;;;;;5012219;28;20246;-53
2022/10/22 06:59:37;;;;;;;13.23;11.80;;;;;;;;;;5025195;28;20721;-52
2022/10/22 07:02:04;;;;;;;12.73;11.38;;;;;;;;;;5023378;28;20256;-52
2022/10/22 07:04:31;;;;;;;12.90;10.70;;;;;;;;;;5022012;28;20641;-53
2022/10/22 07:06:57;;;;;;;14.57;11.23;;;;;;;;;;5027169;28;21051;-54
2022/10/22 07:09:24;;;;;;;13.40;11.93;;;;;;;;;;5022775;28;20232;-52
2022/10/22 07:11:51;;;;;;;11.95;10.60;;;;;;;;;;5018797;28;20232;-52
2022/10/22 07:14:18;;;;;;;12.40;11.05;;;;;;;;;;5022256;28;20310;-51
2022/10/22 07:16:45;;;;;;;15.73;11.38;;;;;;;;;;5023170;28;20310;-53
2022/10/22 07:19:12;;;;;;;12.55;11.25;;;;;;;;;;5021026;28;20236;-51
2022/10/22 07:21:39;;;;;;;13.90;10.90;;;;;;;;;;5021768;28;20237;-52
2022/10/22 07:24:06;;;;;;;11.88;10.68;;;;;;;;;;5020638;28;20307;-52
2022/10/22 07:26:33;;;;;;;15.90;11.48;;;;;;;;;;5027360;28;20247;-53
2022/10/22 07:29:01;;;;;;;13.30;11.55;;;;;;;;;;5026478;28;20239;-53
2022/10/22 07:31:28;;;;;;;12.90;10.52;;;;;;;;;;5024002;28;20235;-53
2022/10/22 07:33:54;;;;;;;15.30;12.45;;;;;;;;;;5024736;28;20233;-53
2022/10/22 07:36:21;;;;;;;12.45;11.15;;;;;;;;;;5025087;28;20240;-52
2022/10/22 07:38:48;;;;;;;14.45;11.25;;;;;;;;;;5025618;28;20235;-53
2022/10/22 07:41:15;;;;;;;13.15;11.25;;;;;;;;;;5023547;28;20271;-52
2022/10/22 07:43:41;;;;;;;12.70;11.27;;;;;;;;;;5028103;28;20623;-51
2022/10/22 07:46:09;;;;;;;11.52;10.43;;;;;;;;;;5026081;28;20367;-54
2022/10/22 07:48:36;;;;;;;11.95;10.52;;;;;;;;;;5030054;28;20256;-53
2022/10/22 07:51:02;;;;;;;10.50;9.40;;;;;;;;;;5023092;28;20233;-51
2022/10/22 07:53:29;;;;;;;11.38;9.68;;;;;;;;;;5026028;28;20236;-54
2022/10/22 07:55:55;;;;;;;12.05;9.68;;;;;;;;;;5020141;28;22652;-52
2022/10/22 07:58:22;;;;;;;12.38;10.15;;;;;;;;;;5026028;28;20815;-51
2022/10/22 08:00:49;;;;;;;12.50;11.10;;;;;;;;;;5024794;28;20235;-53
2022/10/22 08:03:17;;;;;;;11.90;10.63;;;;;;;;;;5025032;28;20545;-53
2022/10/22 08:05:44;;;;;;;13.43;10.75;;;;;;;;;;5024035;28;20236;-52
2022/10/22 08:08:13;;;;;;;11.23;10.13;;;;;;;;;;5023283;28;20392;-53
2022/10/22 08:10:39;;;;;;;12.27;10.23;;;;;;;;;;5024026;28;20508;-52
2022/10/22 08:13:06;;;;;;;12.68;11.25;;;;;;;;;;5025673;28;20240;-52
2022/10/22 08:15:33;;;;;;;14.93;12.90;;;;;;;;;;5023713;28;20239;-52
2022/10/22 08:17:59;;;;;;;13.38;11.38;;;;;;;;;;5023464;28;20817;-52
2022/10/22 08:20:27;;;;;;;13.32;11.93;;;;;;;;;;5025567;28;20643;-52
2022/10/22 08:22:54;;;;;;;14.60;10.65;;;;;;;;;;5022857;28;20750;-53
2022/10/22 08:25:20;;;;;;;11.55;10.25;;;;;;;;;;5024035;28;20233;-52
2022/10/22 08:27:47;;;;;;;13.50;11.43;;;;;;;;;;5023197;28;20251;-53
2022/10/22 08:30:14;;;;;;;12.35;11.07;;;;;;;;;;5024503;28;20233;-53
2022/10/22 08:32:40;;;;;;;12.60;11.40;;;;;;;;;;5026319;28;20307;-52
2022/10/22 08:35:07;;;;;;;13.80;11.00;;;;;;;;;;5025811;28;20317;-53
2022/10/22 08:37:44;;;;;;;12.77;10.82;;;;;;;13.71;100.00;100757.66;5117730;27;21176;-52
2022/10/22 08:40:15;;;;;;;13.50;10.88;;;;;;;13.67;100.00;100753.31;5084097;28;20271;-52
2022/10/22 08:43:15;;;;;;;11.05;10.05;;;;;;;13.63;100.00;100756.03;5083311;28;20237;-53
2022/10/22 08:45:46;;;;;;;12.70;11.38;;;;;;;13.64;100.00;100753.38;5079241;27;20224;-52
2022/10/22 08:48:23;;;;;;;12.02;9.98;;;;;;;13.71;100.00;100765.59;5078857;28;20237;-52
2022/10/22 08:50:53;;;;;;;12.00;10.50;;;;;;;13.70;100.00;100769.13;5075488;28;20236;-52
2022/10/22 08:53:23;;;;;;;11.52;10.13;;;;;;;13.71;100.00;100770.84;5083261;27;20265;-52
2022/10/22 08:55:53;;;;;;;12.45;10.48;;;;;;;13.70;100.00;100777.03;5081795;27;20240;-52
2022/10/22 08:58:22;;;;;;;10.98;9.93;;;;;;;13.76;100.00;100774.31;5073382;28;20222;-52
2022/10/22 09:00:54;;;;;;;11.32;10.20;;;;;;;13.77;100.00;100777.84;5088098;28;20230;-52
2022/10/22 09:03:42;;;;;;;10.32;9.35;;;;;;;13.81;100.00;100777.75;5083877;28;20230;-53
2022/10/22 09:06:11;;;;;;;12.00;9.82;;;;;;;13.82;100.00;100782.13;5083673;27;20238;-54
2022/10/22 09:08:40;;;;;;;10.18;9.13;;;;;;;13.87;100.00;100781.22;5082047;28;20242;-51
2022/10/22 09:11:20;;;;;;;11.02;9.88;;;;;;;13.90;100.00;100786.44;5079404;27;20323;-52
2022/10/22 09:13:47;;;;;;;9.73;8.73;;;;;;;13.90;100.00;100779.41;5080172;27;20234;-52
2022/10/22 09:16:17;;;;;;;11.65;10.45;;;;;;;13.90;100.00;100789.06;5087551;27;20250;-52
2022/10/22 09:18:53;;;;;;;10.10;9.10;;;;;;;13.94;100.00;100782.88;5081717;27;20227;-51
2022/10/22 09:21:26;;;;;;;11.38;10.18;;;;;;;13.98;100.00;100784.59;5088346;27;20226;-51
2022/10/22 09:24:03;;;;;;;12.20;10.73;;;;;;;14.02;100.00;100788.91;5091153;27;20623;-51
2022/10/22 09:26:32;;;;;;;11.18;9.30;;;;;;;14.06;100.00;100795.91;5083127;27;20240;-52
2022/10/22 09:29:00;;;;;;;9.13;8.18;;;;;;;14.06;100.00;100788.84;5085950;27;20325;-51
2022/10/22 09:31:31;;;;;;;11.80;9.77;;;;;;;14.11;100.00;100791.44;5085955;27;20230;-53
2022/10/22 09:33:58;;;;;;;12.80;10.25;;;;;;;14.10;100.00;100794.94;5074731;28;20783;-52
2022/10/22 09:36:28;;;;;;;11.52;10.35;;;;;;;14.16;100.00;100802.78;5077333;28;20238;-53
2022/10/22 09:38:56;;;;;;;11.48;9.30;;;;;;;14.25;100.00;100805.31;5066225;27;20238;-52
2022/10/22 09:41:25;;;;;;;15.68;10.50;;;;;;;14.29;100.00;100806.13;5095652;27;20226;-53
2022/10/22 09:43:52;;;;;;;11.15;9.13;;;;;;;14.37;100.00;100806.00;5096616;27;20236;-52
2022/10/22 09:46:20;;;;;;;13.15;10.95;;;;;;;14.35;100.00;100808.66;5097711;27;20254;-53
2022/10/22 09:48:49;;;;;;;11.45;10.07;;;;;;;14.40;100.00;100806.84;5088327;27;20261;-51
2022/10/22 09:51:33;;;;;;;10.18;9.18;;;;;;;14.48;100.00;100812.00;5087059;28;20704;-52
2022/10/22 09:54:09;;;;;;;11.30;10.20;;;;;;;14.44;100.00;100810.28;4994182;28;20233;-52
2022/10/22 09:56:40;;;;;;;8.98;8.07;;;;;;;14.52;100.00;100808.44;5000019;28;20233;-53
2022/10/22 09:59:14;;;;;;;12.93;11.48;;;;;;;14.49;100.00;100821.66;4988960;28;20237;-52
2022/10/22 10:01:40;;;;;;;11.30;10.20;;;;;;;14.49;100.00;100814.59;4994908;28;20242;-52
2022/10/22 10:04:08;;;;;;;12.90;9.20;;;;;;;14.54;100.00;100827.78;4996426;28;20265;-52
2022/10/22 10:06:37;;;;;;;10.73;9.77;;;;;;;14.52;100.00;100825.16;4992164;28;20273;-54
2022/10/22 10:09:14;;;;;;;11.77;9.95;;;;;;;14.57;100.00;100819.81;4983848;28;20233;-52
2022/10/22 10:11:43;;;;;;;9.30;8.40;;;;;;;14.55;100.00;100830.38;4990293;28;20237;-51
2022/10/22 10:14:14;;;;;;;14.75;11.00;;;;;;;14.53;100.00;100820.72;4989929;28;20241;-52
2022/10/22 10:16:45;;;;;;;12.82;11.32;;;;;;;14.57;100.00;100833.03;4990887;28;20241;-54
2022/10/22 10:19:20;;;;;;;11.30;9.98;;;;;;;14.57;100.00;100827.75;4993226;28;20313;-52
2022/10/22 10:21:55;;;;;;;10.73;9.70;;;;;;;14.60;100.00;100821.50;4991311;28;20608;-53
2022/10/22 10:24:28;;;;;;;10.90;9.45;;;;;;;14.56;100.00;100820.69;4992889;28;20241;-52
2022/10/22 10:27:00;;;;;;;10.45;9.32;;;;;;;14.62;100.00;100814.44;4993375;28;20234;-53
2022/10/22 10:29:40;;;;;;;8.90;8.07;;;;;;;14.67;100.00;100821.41;4993219;28;20233;-52
2022/10/22 10:32:28;;;;;;;8.88;7.97;;;;;;;14.72;100.00;100819.56;5058945;28;20288;-53
2022/10/22 10:35:01;;;;;;;10.57;9.50;;;;;;;14.76;100.00;100815.94;5069348;28;20628;-53
2022/10/22 10:37:30;;;;;;;14.88;11.73;;;;;;;14.80;100.00;100817.63;5083742;28;20241;-51
2022/10/22 10:40:11;;;;;;;10.77;9.77;;;;;;;14.84;100.00;100814.94;5084961;28;20230;-52
2022/10/22 10:42:42;;;;;;;13.20;11.35;;;;;;;14.75;100.00;100810.72;5086384;28;20238;-54
2022/10/22 10:45:16;;;;;;;13.40;12.00;;;;;;;14.72;100.00;100816.03;5081924;28;20238;-51
2022/10/22 10:47:56;;;;;;;11.65;10.40;;;;;;;14.76;100.00;100812.44;5086525;28;20231;-52
2022/10/22 10:50:26;;;;;;;11.35;10.25;;;;;;;14.76;100.00;100813.31;5093621;28;20451;-52
2022/10/22 10:53:01;;;;;;;14.02;11.63;;;;;;;14.82;100.00;100819.41;5091817;28;20275;-52
2022/10/22 10:55:32;;;;;;;16.45;10.57;;;;;;;14.93;100.00;100818.31;5085104;28;20767;-54
2022/10/22 10:58:05;;;;;;;12.85;11.55;;;;;;;15.10;100.00;100811.88;5098075;28;20223;-52
2022/10/22 11:00:35;;;;;;;12.48;10.27;;;;;;;15.21;100.00;100826.63;5087669;28;20628;-53
2022/10/22 11:03:23;;;;;;;14.10;10.77;;;;;;;15.22;100.00;100823.06;5089884;28;20231;-55
2022/10/22 11:05:52;;;;;;;12.20;10.55;;;;;;;15.36;100.00;100829.88;5082301;28;20246;-58
2022/10/22 11:08:21;;;;;;;13.60;12.20;;;;;;;15.49;100.00;100821.66;5090192;28;20245;-53
2022/10/22 11:10:52;;;;;;;13.40;12.20;;;;;;;15.49;100.00;100820.81;5085159;28;20712;-52
2022/10/22 11:13:23;;;;;;;17.05;14.27;;;;;;;15.40;100.00;100815.69;5082541;28;20747;-53
2022/10/22 11:15:53;;;;;;;15.38;13.82;;;;;;;15.39;100.00;100824.53;5086954;28;20249;-53
2022/10/22 11:18:24;;;;;;;15.75;14.15;;;;;;;15.55;100.00;100819.78;5084447;28;20257;-54
2022/10/22 11:20:55;;;;;;;14.32;12.82;;;;;;;15.61;100.00;100820.53;5087327;28;20288;-54
2022/10/22 11:23:27;;;;;;;14.60;13.10;;;;;;;15.64;100.00;100815.19;5083396;28;20283;-52
2022/10/22 11:25:55;;;;;;;16.65;14.20;;;;;;;15.60;100.00;100812.66;5089212;28;20880;-52
2022/10/22 11:28:25;;;;;;;17.77;15.27;;;;;;;15.68;100.00;100824.84;5081872;28;20237;-52
2022/10/22 11:30:58;;;;;;;15.98;12.98;;;;;;;15.67;100.00;100820.47;5083311;28;20246;-52
2022/10/22 11:33:27;;;;;;;10.88;9.88;;;;;;;15.68;100.00;100821.31;5085200;28;20241;-52
2022/10/22 11:35:54;;;;;;;14.48;11.30;;;;;;;15.77;100.00;100814.97;5081771;28;20657;-52
2022/10/22 11:38:24;;;;;;;9.43;8.38;;;;;;;15.87;100.00;100820.03;5082249;28;20238;-54
2022/10/22 11:40:52;;;;;;;10.48;9.48;;;;;;;15.97;100.00;100818.06;5084019;28;20227;-52
2022/10/22 11:43:29;;;;;;;11.73;9.68;;;;;;;16.10;100.00;100822.19;5083835;28;20226;-53
2022/10/22 11:46:09;;;;;;;10.52;9.48;;;;;;;16.19;100.00;100821.97;5083292;28;20771;-52
2022/10/22 11:48:37;;;;;;;10.13;8.98;;;;;;;16.34;100.00;100822.53;5090482;28;20234;-54
2022/10/22 11:51:04;;;;;;;12.77;11.07;;;;;;;16.41;100.00;100826.78;5085762;28;20230;-52
2022/10/22 11:53:32;;;;;;;13.13;11.25;;;;;;;16.48;100.00;100825.72;5088895;28;20231;-52
2022/10/22 11:56:05;;;;;;;13.75;10.82;;;;;;;16.65;100.00;100820.03;5084168;28;20275;-53
2022/10/22 11:58:43;;;;;;;12.32;9.13;;;;;;;16.71;100.00;100822.53;5082564;28;20924;-53
2022/10/22 12:01:27;;;;;;;8.68;7.47;;;;;;;16.66;100.00;100825.28;5079987;28;20234;-52
2022/10/22 12:04:22;;;;;;;12.13;9.40;;;;;;;16.68;100.00;100828.75;5079985;28;20726;-53
2022/10/22 12:06:54;;;;;;;10.82;9.27;;;;;;;16.89;100.00;100824.75;5079373;28;20685;-53
2022/10/22 12:09:24;;;;;;;9.82;8.80;;;;;;;16.91;100.00;100824.69;5085198;28;20316;-53
2022/10/22 12:11:51;;;;;;;10.52;8.68;;;;;;;16.93;100.00;100820.22;5079583;28;20222;-54
2022/10/22 12:14:21;;;;;;;9.70;7.53;;;;;;;16.96;100.00;100828.09;5081955;28;20245;-53
2022/10/22 12:16:51;;;;;;;8.65;7.72;;;;;;;17.02;100.00;100825.28;5087853;28;20260;-52
2022/10/22 12:19:26;;;;;;;8.40;6.82;;;;;;;17.07;100.00;100826.03;5086911;28;20757;-53
2022/10/22 12:21:54;;;;;;;6.68;6.03;;;;;;;17.23;100.00;100817.66;5085752;28;20249;-53
2022/10/22 12:24:22;;;;;;;7.60;6.57;;;;;;;17.26;100.00;100815.78;5082286;28;20222;-53
2022/10/22 12:26:51;;;;;;;8.40;5.75;;;;;;;17.29;100.00;100818.38;5082998;28;20774;-52
2022/10/22 12:29:18;;;;;;;6.00;5.43;;;;;;;17.26;100.00;100822.88;5079066;28;20240;-52
2022/10/22 12:31:47;;;;;;;5.90;5.30;;;;;;;17.33;100.00;100822.66;5086318;28;20225;-52
2022/10/22 12:34:15;;;;;;;6.53;4.43;;;;;;;17.31;100.00;100821.00;5081338;28;20241;-52
2022/10/22 12:36:44;;;;;;;6.45;5.70;;;;;;;17.46;100.00;100822.34;5082161;28;20238;-51
2022/10/22 12:39:12;;;;;;;5.53;5.13;;;;;;;17.33;100.00;100821.81;5084368;28;20241;-51
2022/10/22 12:41:39;;;;;;;6.43;4.07;;;;;;;17.34;100.00;100827.09;5083856;28;20269;-51
2022/10/22 12:44:06;;;;;;;5.05;3.75;;;;;;;17.34;100.00;100823.53;5083517;28;20230;-52
2022/10/22 12:46:34;;;;;;;5.13;4.38;;;;;;;17.39;100.00;100826.94;5087528;28;20722;-54
2022/10/22 12:49:03;;;;;;;5.38;4.35;;;;;;;17.52;100.00;100820.41;5088541;28;20234;-52
2022/10/22 12:51:30;;;;;;;4.30;4.00;;;;;;;17.52;100.00;100823.06;5087275;28;20238;-51
2022/10/22 12:54:07;;;;;;;8.15;3.95;;;;;;;17.58;100.00;100822.84;5083437;28;20230;-54
2022/10/22 12:56:35;;;;;;;6.40;4.10;;;;;;;17.47;100.00;100824.06;5082056;28;20260;-52
2022/10/22 12:59:03;;;;;;;5.20;3.80;;;;;;;17.43;100.00;100823.28;5086199;28;20238;-52
2022/10/22 13:01:36;;;;;;;6.97;4.18;;;;;;;17.55;100.00;100817.66;5081436;28;20226;-52
2022/10/22 13:04:06;;;;;;;6.00;3.78;;;;;;;17.70;100.00;100820.78;5078829;28;20284;-52
2022/10/22 13:06:34;;;;;;;6.57;3.35;;;;;;;17.60;100.00;100817.50;5083641;28;20268;-53
2022/10/22 13:09:13;;;;;;;5.35;2.42;;;;;;;17.64;100.00;100822.69;5084149;28;20712;-52
2022/10/22 13:11:42;;;;;;;3.25;2.60;;;;;;;17.57;100.00;100822.91;5090866;28;20343;-53